Aviation Digital Data Service (ADDS)

Output produced by METARs form (0402 UTC 20 March 2019)
found at http://www.aviationweather.gov/metar/data/
 
Forecast for: DNKA (KADUNA (CIV/MIL), NG)
Text: TAF DNKA 192150Z 2000/2106 07004KT CAVOK
Forecast period: 0000 to 0900 UTC 20 March 2019
Forecast type: FROM: standard forecast or significant change
Winds: from the ENE (70 degrees) at 5 MPH (4 knots; 2.1 m/s)
Visibility: 6 or more miles 10+ km)
Ceiling: unknown
Clouds: missing
Weather: NSW  (no significant weather)
Text: BECMG 2009/2011 17010KT
Forecast period: 0900 UTC 20 March 2019 to 0600 UTC 21 March 2019
Forecast type: BECOMING: Conditions expected to become as follows by 1100 UTC 20 March 2019
Winds: from the S (170 degrees) at 12 MPH (10 knots; 5.1 m/s)
Visibility: 6 or more miles 10+ km)
Ceiling: unknown
Clouds: missing
Weather: NSW  (no significant weather)